PWSweather.com
Personal Weather Stations
Station Observations
CANDIOTINO
Barrio Candioti Norte, Santa FeAR 3000

Barrio Candioti NorteSanta FeAR 3000

Lat: -31.632778, Lon: -60.695556

Elevation: 69

Station Type: WH-1081

http://www.eltiempoensantafe.com.ar

Latest ConditionsUpdated 8:15:01 AM GMT-03:57 Sunday, Dec 15, 2019
Currently Today's Max Today's Min Today's Average
Temperature 65.1°F18.4°C 68.2°F20.1°C 65.1°F18.4°C 67.2°F19.6°C
Dew Point 64.9°F18.3°C 67.9°F19.9°C 64.9°F18.3°C 66.9°F19.4°C
Winds 6.0 mph NE9.7 kmh NE 9.8 mph -15.8 kmh - - 2.7 mph 4.3 kmh
Wind Gusts 17.4 mph28.0 kmh 19.7 mph31.7 kmh - -
Humidity 99% 99% 99% 99%
Pressure 29.46 in997.6 mb 29.73 in1006.8 mb 29.46 in997.6 mb -
Precipitation - 2.83 in71.9 mm - -
Hour Temp Dew Point Humidity Winds Wind Gusts Pressure Precip Precip Rate Daily Precip Total
08:15 AM 65.1°F18.4°C 64.9°F18.3°C 99% 6.0 mph NE9.7 kmh NE 17.4 mph28.0 kmh 29.46 in997.6 mb 0.02 in0.5 mm 0.00 in0.0 mm 2.83 in71.9 mm
08:00 AM 65.5°F18.6°C 65.2°F18.4°C 99% 9.8 mph NE15.8 kmh NE 19.7 mph31.7 kmh 29.51 in999.3 mb 0.02 in0.5 mm 0.00 in0.0 mm 2.82 in71.6 mm
07:45 AM 65.5°F18.6°C 65.2°F18.4°C 99% 6.0 mph N9.7 kmh N 8.3 mph13.4 kmh 29.59 in1002.0 mb 0.05 in1.3 mm 0.00 in0.0 mm 2.82 in71.6 mm
07:30 AM 65.8°F18.8°C 65.6°F18.7°C 99% 2.2 mph N3.5 kmh N 15.2 mph24.5 kmh 29.64 in1003.7 mb 0.06 in1.5 mm 0.00 in0.0 mm 2.81 in71.4 mm
07:15 AM 66.0°F18.9°C 65.8°F18.8°C 99% 7.6 mph N12.2 kmh N 15.2 mph24.5 kmh 29.68 in1005.1 mb 0.08 in2.0 mm 0.00 in0.0 mm 2.81 in71.4 mm
07:00 AM 66.2°F19.0°C 65.9°F18.8°C 99% 5.4 mph N8.7 kmh N 8.3 mph13.4 kmh 29.70 in1005.8 mb 0.12 in3.0 mm 0.00 in0.0 mm 2.80 in71.1 mm
06:45 AM 66.4°F19.1°C 66.1°F18.9°C 99% 3.1 mph N5.0 kmh N 9.2 mph14.8 kmh 29.70 in1005.8 mb 0.17 in4.3 mm 0.00 in0.0 mm 2.78 in70.6 mm
06:30 AM 66.6°F19.2°C 66.3°F19.1°C 99% 5.4 mph NNW8.7 kmh NNW 11.4 mph18.3 kmh 29.73 in1006.8 mb 0.20 in5.1 mm 0.00 in0.0 mm 2.75 in69.9 mm
06:15 AM 66.7°F19.3°C 66.5°F19.2°C 99% 1.6 mph N2.6 kmh N 11.4 mph18.3 kmh 29.71 in1006.1 mb 0.20 in5.1 mm 0.04 in1.0 mm 2.72 in69.1 mm
06:00 AM 67.1°F19.5°C 66.8°F19.3°C 99% 4.5 mph N7.2 kmh N 6.9 mph11.1 kmh 29.73 in1006.8 mb 0.19 in4.8 mm 0.01 in0.3 mm 2.67 in67.8 mm
05:45 AM 67.1°F19.5°C 66.8°F19.3°C 99% 2.2 mph N3.5 kmh N 7.6 mph12.2 kmh 29.71 in1006.1 mb 0.18 in4.6 mm 0.00 in0.0 mm 2.61 in66.3 mm
05:30 AM 67.1°F19.5°C 66.8°F19.3°C 99% 0.7 mph NE1.1 kmh NE 4.5 mph7.2 kmh 29.70 in1005.8 mb 0.18 in4.6 mm 0.00 in0.0 mm 2.55 in64.8 mm
05:15 AM 67.5°F19.7°C 67.2°F19.6°C 99% 0.7 mph E1.1 kmh E 3.1 mph5.0 kmh 29.68 in1005.1 mb 0.21 in5.3 mm 0.00 in0.0 mm 2.52 in64.0 mm
05:00 AM 67.5°F19.7°C 67.2°F19.6°C 99% Calm Calm 0.7 mph1.1 kmh 29.69 in1005.4 mb 0.25 in6.4 mm 0.00 in0.0 mm 2.48 in63.0 mm
04:45 AM 67.5°F19.7°C 67.2°F19.6°C 99% Calm Calm 1.6 mph2.6 kmh 29.70 in1005.8 mb 0.25 in6.4 mm 0.00 in0.0 mm 2.42 in61.5 mm
04:30 AM 67.1°F19.5°C 66.8°F19.3°C 99% Calm Calm 3.8 mph6.1 kmh 29.68 in1005.1 mb 0.27 in6.9 mm 0.04 in1.0 mm 2.37 in60.2 mm
04:15 AM 67.1°F19.5°C 66.8°F19.3°C 99% 0.7 mph ESE1.1 kmh ESE 6.0 mph9.7 kmh 29.68 in1005.1 mb 0.26 in6.6 mm 0.00 in0.0 mm 2.30 in58.4 mm
04:00 AM 67.1°F19.5°C 66.8°F19.3°C 99% 3.1 mph SE5.0 kmh SE 9.8 mph15.8 kmh 29.68 in1005.1 mb 0.32 in8.1 mm 0.00 in0.0 mm 2.23 in56.6 mm
03:45 AM 67.1°F19.5°C 66.8°F19.3°C 99% 3.8 mph S6.1 kmh S 6.9 mph11.1 kmh 29.68 in1005.1 mb 0.34 in8.6 mm 0.00 in0.0 mm 2.16 in54.9 mm
03:30 AM 67.1°F19.5°C 66.8°F19.3°C 99% 2.2 mph NW3.5 kmh NW 6.0 mph9.7 kmh 29.66 in1004.4 mb 0.37 in9.4 mm 0.00 in0.0 mm 2.10 in53.3 mm
03:15 AM 67.5°F19.7°C 67.2°F19.6°C 99% 0.7 mph S1.1 kmh S 2.2 mph3.5 kmh 29.67 in1004.7 mb 0.47 in11.9 mm 0.12 in3.0 mm 2.04 in51.8 mm
03:00 AM 67.5°F19.7°C 67.2°F19.6°C 99% 1.6 mph W2.6 kmh W 4.5 mph7.2 kmh 29.67 in1004.7 mb 0.44 in11.2 mm 0.07 in1.8 mm 1.91 in48.5 mm
02:45 AM 67.3°F19.6°C 67.0°F19.4°C 99% Calm Calm 5.4 mph8.7 kmh 29.68 in1005.1 mb 0.39 in9.9 mm 0.08 in2.0 mm 1.82 in46.2 mm
02:30 AM 68.0°F20.0°C 67.7°F19.8°C 99% Calm Calm 3.1 mph5.0 kmh 29.68 in1005.1 mb 0.37 in9.4 mm 0.00 in0.0 mm 1.74 in44.2 mm
02:15 AM 68.0°F20.0°C 67.7°F19.8°C 99% Calm Calm 3.1 mph5.0 kmh 29.69 in1005.4 mb 0.41 in10.4 mm 0.00 in0.0 mm 1.57 in39.9 mm
02:00 AM 68.2°F20.1°C 67.9°F19.9°C 99% 3.1 mph NE5.0 kmh NE 8.3 mph13.4 kmh 29.69 in1005.4 mb 0.51 in13.0 mm 0.00 in0.0 mm 1.46 in37.1 mm
01:45 AM 68.2°F20.1°C 67.9°F19.9°C 99% 2.2 mph NNE3.5 kmh NNE 7.6 mph12.2 kmh 29.68 in1005.1 mb 0.74 in18.8 mm 0.00 in0.0 mm 1.43 in36.3 mm
01:30 AM 68.0°F20.0°C 67.7°F19.8°C 99% Calm Calm 4.5 mph7.2 kmh 29.68 in1005.1 mb 1.12 in28.4 mm 0.20 in5.1 mm 1.37 in34.8 mm
01:15 AM 68.0°F20.0°C 67.7°F19.8°C 99% 3.8 mph N6.1 kmh N 7.6 mph12.2 kmh 29.70 in1005.8 mb 1.07 in27.2 mm 0.44 in11.2 mm 1.16 in29.5 mm
01:00 AM 67.8°F19.9°C 67.6°F19.8°C 99% 2.2 mph ENE3.5 kmh ENE 9.8 mph15.8 kmh 29.65 in1004.1 mb 0.96 in24.4 mm 0.44 in11.2 mm 0.96 in24.4 mm
12:45 AM 68.2°F20.1°C 67.9°F19.9°C 99% 2.2 mph E3.5 kmh E 7.6 mph12.2 kmh 29.66 in1004.4 mb 0.63 in16.0 mm 0.72 in18.3 mm 0.63 in16.0 mm
12:30 AM 68.2°F20.1°C 67.9°F19.9°C 99% 3.8 mph NE6.1 kmh NE 6.9 mph11.1 kmh 29.68 in1005.1 mb 0.45 in11.4 mm 0.00 in0.0 mm 0.25 in6.4 mm
12:15 AM 68.0°F20.0°C 67.7°F19.8°C 99% 5.4 mph SE8.7 kmh SE 9.8 mph15.8 kmh 29.64 in1003.7 mb 0.66 in16.8 mm 0.00 in0.0 mm 0.07 in1.8 mm
12:00 AM 68.0°F20.0°C 67.7°F19.8°C 99% 1.6 mph SE2.6 kmh SE 11.4 mph18.3 kmh 29.65 in1004.1 mb 1.31 in33.3 mm 0.00 in0.0 mm 1.31 in33.3 mm